sensor_id;sensor_type;location;lat;lon;timestamp;P1;durP1;ratioP1;P2;durP2;ratioP2
72085;SDS011;64750;52.134;5.424;2023-07-09T00:01:15;9.85;;;6.40;;
72085;SDS011;64750;52.134;5.424;2023-07-09T00:03:45;8.33;;;7.50;;
72085;SDS011;64750;52.134;5.424;2023-07-09T00:06:14;7.22;;;6.53;;
72085;SDS011;64750;52.134;5.424;2023-07-09T00:08:43;9.65;;;7.20;;
72085;SDS011;64750;52.134;5.424;2023-07-09T00:11:12;7.57;;;6.97;;
72085;SDS011;64750;52.134;5.424;2023-07-09T00:13:38;11.00;;;7.18;;
72085;SDS011;64750;52.134;5.424;2023-07-09T00:16:10;8.73;;;6.70;;
72085;SDS011;64750;52.134;5.424;2023-07-09T00:18:43;7.45;;;6.75;;
72085;SDS011;64750;52.134;5.424;2023-07-09T00:21:10;8.15;;;7.35;;
72085;SDS011;64750;52.134;5.424;2023-07-09T00:23:36;7.25;;;6.55;;
72085;SDS011;64750;52.134;5.424;2023-07-09T00:26:10;7.88;;;7.18;;
72085;SDS011;64750;52.134;5.424;2023-07-09T00:28:42;7.93;;;6.17;;
72085;SDS011;64750;52.134;5.424;2023-07-09T00:31:10;8.73;;;7.47;;
72085;SDS011;64750;52.134;5.424;2023-07-09T00:33:40;9.20;;;7.45;;
72085;SDS011;64750;52.134;5.424;2023-07-09T00:36:11;7.40;;;6.65;;
72085;SDS011;64750;52.134;5.424;2023-07-09T00:38:41;9.98;;;7.38;;
72085;SDS011;64750;52.134;5.424;2023-07-09T00:41:16;12.10;;;7.40;;
72085;SDS011;64750;52.134;5.424;2023-07-09T00:43:46;11.07;;;7.85;;
72085;SDS011;64750;52.134;5.424;2023-07-09T00:46:16;8.90;;;6.93;;
72085;SDS011;64750;52.134;5.424;2023-07-09T00:48:49;13.45;;;7.88;;
72085;SDS011;64750;52.134;5.424;2023-07-09T00:51:24;8.85;;;7.10;;
72085;SDS011;64750;52.134;5.424;2023-07-09T00:53:54;10.73;;;7.40;;
72085;SDS011;64750;52.134;5.424;2023-07-09T00:56:32;7.72;;;6.90;;
72085;SDS011;64750;52.134;5.424;2023-07-09T00:59:05;8.05;;;7.35;;
72085;SDS011;64750;52.134;5.424;2023-07-09T01:01:37;8.65;;;6.90;;
72085;SDS011;64750;52.134;5.424;2023-07-09T01:04:07;11.00;;;7.97;;
72085;SDS011;64750;52.134;5.424;2023-07-09T01:06:37;7.83;;;7.10;;
72085;SDS011;64750;52.134;5.424;2023-07-09T01:09:09;9.80;;;7.50;;
72085;SDS011;64750;52.134;5.424;2023-07-09T01:11:36;8.65;;;7.55;;
72085;SDS011;64750;52.134;5.424;2023-07-09T01:14:07;8.27;;;7.47;;
72085;SDS011;64750;52.134;5.424;2023-07-09T01:16:36;8.70;;;7.50;;
72085;SDS011;64750;52.134;5.424;2023-07-09T01:19:05;9.37;;;7.23;;
72085;SDS011;64750;52.134;5.424;2023-07-09T01:21:33;9.02;;;7.53;;
72085;SDS011;64750;52.134;5.424;2023-07-09T01:24:11;8.40;;;7.63;;
72085;SDS011;64750;52.134;5.424;2023-07-09T01:27:00;8.43;;;7.65;;
72085;SDS011;64750;52.134;5.424;2023-07-09T01:29:31;13.82;;;8.50;;
72085;SDS011;64750;52.134;5.424;2023-07-09T01:32:00;8.43;;;7.50;;
72085;SDS011;64750;52.134;5.424;2023-07-09T01:34:27;9.02;;;8.23;;
72085;SDS011;64750;52.134;5.424;2023-07-09T01:36:53;14.40;;;8.52;;
72085;SDS011;64750;52.134;5.424;2023-07-09T01:39:19;10.65;;;7.78;;
72085;SDS011;64750;52.134;5.424;2023-07-09T01:41:46;10.40;;;8.13;;
72085;SDS011;64750;52.134;5.424;2023-07-09T01:44:13;12.07;;;8.30;;
72085;SDS011;64750;52.134;5.424;2023-07-09T01:46:40;13.38;;;8.23;;
72085;SDS011;64750;52.134;5.424;2023-07-09T01:49:08;8.70;;;8.00;;
72085;SDS011;64750;52.134;5.424;2023-07-09T01:51:35;9.05;;;8.23;;
72085;SDS011;64750;52.134;5.424;2023-07-09T01:54:02;9.82;;;8.45;;
72085;SDS011;64750;52.134;5.424;2023-07-09T01:56:29;10.37;;;9.23;;
72085;SDS011;64750;52.134;5.424;2023-07-09T01:58:55;11.65;;;8.95;;
72085;SDS011;64750;52.134;5.424;2023-07-09T02:01:28;10.18;;;8.80;;
72085;SDS011;64750;52.134;5.424;2023-07-09T02:03:55;9.80;;;8.82;;
72085;SDS011;64750;52.134;5.424;2023-07-09T02:06:22;10.00;;;8.93;;
72085;SDS011;64750;52.134;5.424;2023-07-09T02:08:50;9.77;;;8.13;;
72085;SDS011;64750;52.134;5.424;2023-07-09T02:11:17;13.27;;;8.55;;
72085;SDS011;64750;52.134;5.424;2023-07-09T02:13:43;8.68;;;7.97;;
72085;SDS011;64750;52.134;5.424;2023-07-09T02:16:10;8.52;;;7.93;;
72085;SDS011;64750;52.134;5.424;2023-07-09T02:18:36;10.50;;;8.18;;
72085;SDS011;64750;52.134;5.424;2023-07-09T02:21:03;8.90;;;8.10;;
72085;SDS011;64750;52.134;5.424;2023-07-09T02:23:29;10.85;;;9.07;;
72085;SDS011;64750;52.134;5.424;2023-07-09T02:25:56;9.15;;;8.35;;
72085;SDS011;64750;52.134;5.424;2023-07-09T02:28:23;11.07;;;9.02;;
72085;SDS011;64750;52.134;5.424;2023-07-09T02:30:49;12.73;;;9.00;;
72085;SDS011;64750;52.134;5.424;2023-07-09T02:33:16;10.63;;;8.97;;
72085;SDS011;64750;52.134;5.424;2023-07-09T02:35:42;10.90;;;8.45;;
72085;SDS011;64750;52.134;5.424;2023-07-09T02:38:09;9.80;;;8.68;;
72085;SDS011;64750;52.134;5.424;2023-07-09T02:40:36;11.00;;;9.75;;
72085;SDS011;64750;52.134;5.424;2023-07-09T02:43:02;11.07;;;8.80;;
72085;SDS011;64750;52.134;5.424;2023-07-09T02:45:29;10.97;;;8.33;;
72085;SDS011;64750;52.134;5.424;2023-07-09T02:47:55;13.48;;;9.55;;
72085;SDS011;64750;52.134;5.424;2023-07-09T02:50:22;13.35;;;9.20;;
72085;SDS011;64750;52.134;5.424;2023-07-09T02:52:48;13.13;;;9.02;;
72085;SDS011;64750;52.134;5.424;2023-07-09T02:55:15;10.10;;;9.10;;
72085;SDS011;64750;52.134;5.424;2023-07-09T02:57:41;9.10;;;8.30;;
72085;SDS011;64750;52.134;5.424;2023-07-09T03:00:08;10.95;;;8.27;;
72085;SDS011;64750;52.134;5.424;2023-07-09T03:02:35;11.43;;;8.63;;
72085;SDS011;64750;52.134;5.424;2023-07-09T03:05:02;10.07;;;8.70;;
72085;SDS011;64750;52.134;5.424;2023-07-09T03:07:29;9.73;;;8.82;;
72085;SDS011;64750;52.134;5.424;2023-07-09T03:09:55;8.37;;;7.77;;
72085;SDS011;64750;52.134;5.424;2023-07-09T03:12:21;9.68;;;8.57;;
72085;SDS011;64750;52.134;5.424;2023-07-09T03:14:48;9.20;;;7.97;;
72085;SDS011;64750;52.134;5.424;2023-07-09T03:17:15;9.18;;;8.13;;
72085;SDS011;64750;52.134;5.424;2023-07-09T03:19:43;9.68;;;8.57;;
72085;SDS011;64750;52.134;5.424;2023-07-09T03:22:09;9.87;;;8.80;;
72085;SDS011;64750;52.134;5.424;2023-07-09T03:24:36;9.38;;;8.05;;
72085;SDS011;64750;52.134;5.424;2023-07-09T03:27:02;8.60;;;7.90;;
72085;SDS011;64750;52.134;5.424;2023-07-09T03:29:29;9.50;;;8.32;;
72085;SDS011;64750;52.134;5.424;2023-07-09T03:31:56;9.68;;;8.77;;
72085;SDS011;64750;52.134;5.424;2023-07-09T03:34:22;10.80;;;8.20;;
72085;SDS011;64750;52.134;5.424;2023-07-09T03:36:49;9.68;;;8.68;;
72085;SDS011;64750;52.134;5.424;2023-07-09T03:39:15;10.00;;;8.75;;
72085;SDS011;64750;52.134;5.424;2023-07-09T03:41:42;9.32;;;8.43;;
72085;SDS011;64750;52.134;5.424;2023-07-09T03:44:08;8.88;;;8.07;;
72085;SDS011;64750;52.134;5.424;2023-07-09T03:46:35;9.83;;;8.80;;
72085;SDS011;64750;52.134;5.424;2023-07-09T03:49:01;8.60;;;7.80;;
72085;SDS011;64750;52.134;5.424;2023-07-09T03:51:28;8.40;;;7.72;;
72085;SDS011;64750;52.134;5.424;2023-07-09T03:53:54;10.10;;;8.30;;
72085;SDS011;64750;52.134;5.424;2023-07-09T03:56:21;8.38;;;7.57;;
72085;SDS011;64750;52.134;5.424;2023-07-09T03:58:48;8.60;;;7.83;;
72085;SDS011;64750;52.134;5.424;2023-07-09T04:01:15;9.10;;;8.32;;
72085;SDS011;64750;52.134;5.424;2023-07-09T04:03:43;8.98;;;7.90;;
72085;SDS011;64750;52.134;5.424;2023-07-09T04:06:09;9.30;;;7.40;;
72085;SDS011;64750;52.134;5.424;2023-07-09T04:08:36;8.73;;;7.72;;
72085;SDS011;64750;52.134;5.424;2023-07-09T04:11:02;9.43;;;7.87;;
72085;SDS011;64750;52.134;5.424;2023-07-09T04:13:30;8.95;;;8.25;;
72085;SDS011;64750;52.134;5.424;2023-07-09T04:16:00;9.98;;;8.80;;
72085;SDS011;64750;52.134;5.424;2023-07-09T04:18:27;8.88;;;7.90;;
72085;SDS011;64750;52.134;5.424;2023-07-09T04:20:54;8.73;;;7.88;;
72085;SDS011;64750;52.134;5.424;2023-07-09T04:23:20;8.73;;;7.77;;
72085;SDS011;64750;52.134;5.424;2023-07-09T04:25:47;8.85;;;8.05;;
72085;SDS011;64750;52.134;5.424;2023-07-09T04:28:14;8.98;;;8.05;;
72085;SDS011;64750;52.134;5.424;2023-07-09T04:30:48;8.10;;;7.28;;
72085;SDS011;64750;52.134;5.424;2023-07-09T04:33:16;8.85;;;8.00;;
72085;SDS011;64750;52.134;5.424;2023-07-09T04:35:47;8.33;;;7.47;;
72085;SDS011;64750;52.134;5.424;2023-07-09T04:38:14;10.48;;;8.65;;
72085;SDS011;64750;52.134;5.424;2023-07-09T04:40:42;9.02;;;8.13;;
72085;SDS011;64750;52.134;5.424;2023-07-09T04:43:09;8.60;;;7.72;;
72085;SDS011;64750;52.134;5.424;2023-07-09T04:45:35;10.57;;;8.48;;
72085;SDS011;64750;52.134;5.424;2023-07-09T04:48:02;8.03;;;7.33;;
72085;SDS011;64750;52.134;5.424;2023-07-09T04:50:29;8.10;;;7.35;;
72085;SDS011;64750;52.134;5.424;2023-07-09T04:52:55;8.35;;;7.50;;
72085;SDS011;64750;52.134;5.424;2023-07-09T04:55:22;11.10;;;7.47;;
72085;SDS011;64750;52.134;5.424;2023-07-09T04:57:48;9.27;;;8.48;;
72085;SDS011;64750;52.134;5.424;2023-07-09T05:00:15;10.20;;;7.43;;
72085;SDS011;64750;52.134;5.424;2023-07-09T05:02:41;9.30;;;8.35;;
72085;SDS011;64750;52.134;5.424;2023-07-09T05:05:08;9.13;;;8.13;;
72085;SDS011;64750;52.134;5.424;2023-07-09T05:07:35;8.82;;;7.93;;
72085;SDS011;64750;52.134;5.424;2023-07-09T05:10:02;8.63;;;7.85;;
72085;SDS011;64750;52.134;5.424;2023-07-09T05:12:29;9.27;;;8.33;;
72085;SDS011;64750;52.134;5.424;2023-07-09T05:14:56;8.48;;;7.35;;
72085;SDS011;64750;52.134;5.424;2023-07-09T05:17:22;8.50;;;7.75;;
72085;SDS011;64750;52.134;5.424;2023-07-09T05:19:50;11.73;;;7.32;;
72085;SDS011;64750;52.134;5.424;2023-07-09T05:22:17;9.57;;;8.27;;
72085;SDS011;64750;52.134;5.424;2023-07-09T05:24:44;9.57;;;8.47;;
72085;SDS011;64750;52.134;5.424;2023-07-09T05:27:10;8.93;;;8.23;;
72085;SDS011;64750;52.134;5.424;2023-07-09T05:29:37;9.38;;;8.35;;
72085;SDS011;64750;52.134;5.424;2023-07-09T05:32:03;10.23;;;8.15;;
72085;SDS011;64750;52.134;5.424;2023-07-09T05:34:30;10.07;;;9.13;;
72085;SDS011;64750;52.134;5.424;2023-07-09T05:36:59;10.87;;;9.77;;
72085;SDS011;64750;52.134;5.424;2023-07-09T05:39:27;9.55;;;8.52;;
72085;SDS011;64750;52.134;5.424;2023-07-09T05:41:53;9.80;;;9.00;;
72085;SDS011;64750;52.134;5.424;2023-07-09T05:44:19;9.27;;;8.48;;
72085;SDS011;64750;52.134;5.424;2023-07-09T05:46:46;11.10;;;9.65;;
72085;SDS011;64750;52.134;5.424;2023-07-09T05:49:13;11.70;;;9.63;;
72085;SDS011;64750;52.134;5.424;2023-07-09T05:51:39;11.50;;;10.25;;
72085;SDS011;64750;52.134;5.424;2023-07-09T05:54:06;15.13;;;11.00;;
72085;SDS011;64750;52.134;5.424;2023-07-09T05:56:35;14.55;;;12.02;;
72085;SDS011;64750;52.134;5.424;2023-07-09T05:59:02;13.15;;;11.65;;
72085;SDS011;64750;52.134;5.424;2023-07-09T06:01:28;12.83;;;11.60;;
72085;SDS011;64750;52.134;5.424;2023-07-09T06:03:55;14.25;;;12.23;;
72085;SDS011;64750;52.134;5.424;2023-07-09T06:06:23;12.43;;;11.15;;
72085;SDS011;64750;52.134;5.424;2023-07-09T06:08:50;17.52;;;13.23;;
72085;SDS011;64750;52.134;5.424;2023-07-09T06:11:16;16.80;;;13.43;;
72085;SDS011;64750;52.134;5.424;2023-07-09T06:13:45;18.80;;;14.03;;
72085;SDS011;64750;52.134;5.424;2023-07-09T06:16:14;19.65;;;11.85;;
72085;SDS011;64750;52.134;5.424;2023-07-09T06:18:41;24.55;;;13.13;;
72085;SDS011;64750;52.134;5.424;2023-07-09T06:21:07;18.52;;;12.05;;
72085;SDS011;64750;52.134;5.424;2023-07-09T06:23:36;17.55;;;12.40;;
72085;SDS011;64750;52.134;5.424;2023-07-09T06:26:03;12.17;;;11.03;;
72085;SDS011;64750;52.134;5.424;2023-07-09T06:28:30;16.17;;;12.00;;
72085;SDS011;64750;52.134;5.424;2023-07-09T06:30:57;15.75;;;11.32;;
72085;SDS011;64750;52.134;5.424;2023-07-09T06:33:24;12.35;;;10.30;;
72085;SDS011;64750;52.134;5.424;2023-07-09T06:36:00;13.93;;;11.68;;
72085;SDS011;64750;52.134;5.424;2023-07-09T06:38:28;15.23;;;11.33;;
72085;SDS011;64750;52.134;5.424;2023-07-09T06:40:56;18.55;;;11.13;;
72085;SDS011;64750;52.134;5.424;2023-07-09T06:43:23;12.05;;;10.85;;
72085;SDS011;64750;52.134;5.424;2023-07-09T06:45:56;14.38;;;11.40;;
72085;SDS011;64750;52.134;5.424;2023-07-09T06:48:26;13.98;;;11.13;;
72085;SDS011;64750;52.134;5.424;2023-07-09T06:50:55;13.00;;;10.83;;
72085;SDS011;64750;52.134;5.424;2023-07-09T06:53:22;17.00;;;11.32;;
72085;SDS011;64750;52.134;5.424;2023-07-09T06:55:49;13.52;;;10.45;;
72085;SDS011;64750;52.134;5.424;2023-07-09T06:58:16;11.77;;;10.57;;
72085;SDS011;64750;52.134;5.424;2023-07-09T07:00:44;16.48;;;11.18;;
72085;SDS011;64750;52.134;5.424;2023-07-09T07:03:11;11.93;;;10.73;;
72085;SDS011;64750;52.134;5.424;2023-07-09T07:05:42;12.93;;;11.57;;
72085;SDS011;64750;52.134;5.424;2023-07-09T07:08:09;13.63;;;11.27;;
72085;SDS011;64750;52.134;5.424;2023-07-09T07:10:37;12.43;;;11.13;;
72085;SDS011;64750;52.134;5.424;2023-07-09T07:13:07;16.70;;;13.38;;
72085;SDS011;64750;52.134;5.424;2023-07-09T07:15:36;50.70;;;12.83;;
72085;SDS011;64750;52.134;5.424;2023-07-09T07:18:03;20.10;;;12.20;;
72085;SDS011;64750;52.134;5.424;2023-07-09T07:20:30;13.35;;;11.95;;
72085;SDS011;64750;52.134;5.424;2023-07-09T07:22:58;13.93;;;12.30;;
72085;SDS011;64750;52.134;5.424;2023-07-09T07:25:24;14.70;;;12.38;;
72085;SDS011;64750;52.134;5.424;2023-07-09T07:27:51;15.17;;;12.47;;
72085;SDS011;64750;52.134;5.424;2023-07-09T07:30:17;13.45;;;11.80;;
72085;SDS011;64750;52.134;5.424;2023-07-09T07:32:45;15.93;;;12.38;;
72085;SDS011;64750;52.134;5.424;2023-07-09T07:35:15;12.52;;;11.20;;
72085;SDS011;64750;52.134;5.424;2023-07-09T07:37:42;15.65;;;12.10;;
72085;SDS011;64750;52.134;5.424;2023-07-09T07:40:09;19.47;;;12.97;;
72085;SDS011;64750;52.134;5.424;2023-07-09T07:42:36;13.13;;;11.35;;
72085;SDS011;64750;52.134;5.424;2023-07-09T07:45:03;16.02;;;11.07;;
72085;SDS011;64750;52.134;5.424;2023-07-09T07:47:30;13.80;;;10.60;;
72085;SDS011;64750;52.134;5.424;2023-07-09T07:49:56;12.27;;;10.85;;
72085;SDS011;64750;52.134;5.424;2023-07-09T07:52:23;12.57;;;10.37;;
72085;SDS011;64750;52.134;5.424;2023-07-09T07:54:51;11.82;;;10.48;;
72085;SDS011;64750;52.134;5.424;2023-07-09T07:57:18;14.48;;;10.27;;
72085;SDS011;64750;52.134;5.424;2023-07-09T07:59:45;12.80;;;11.18;;
72085;SDS011;64750;52.134;5.424;2023-07-09T08:02:13;11.38;;;10.20;;
72085;SDS011;64750;52.134;5.424;2023-07-09T08:04:40;18.07;;;11.17;;
72085;SDS011;64750;52.134;5.424;2023-07-09T08:07:07;12.75;;;10.70;;
72085;SDS011;64750;52.134;5.424;2023-07-09T08:09:35;11.13;;;9.88;;
72085;SDS011;64750;52.134;5.424;2023-07-09T08:12:02;11.35;;;10.30;;
72085;SDS011;64750;52.134;5.424;2023-07-09T08:14:40;12.10;;;8.68;;
72085;SDS011;64750;52.134;5.424;2023-07-09T08:17:07;13.47;;;9.20;;
72085;SDS011;64750;52.134;5.424;2023-07-09T08:22:34;12.55;;;8.68;;
72085;SDS011;64750;52.134;5.424;2023-07-09T08:25:00;8.80;;;8.00;;
72085;SDS011;64750;52.134;5.424;2023-07-09T08:27:27;8.90;;;7.78;;
72085;SDS011;64750;52.134;5.424;2023-07-09T08:29:53;10.83;;;8.10;;
72085;SDS011;64750;52.134;5.424;2023-07-09T08:32:20;10.57;;;7.22;;
72085;SDS011;64750;52.134;5.424;2023-07-09T08:34:46;8.32;;;7.38;;
72085;SDS011;64750;52.134;5.424;2023-07-09T08:37:33;10.93;;;7.05;;
72085;SDS011;64750;52.134;5.424;2023-07-09T08:39:59;8.75;;;7.78;;
72085;SDS011;64750;52.134;5.424;2023-07-09T08:42:28;8.60;;;7.17;;
72085;SDS011;64750;52.134;5.424;2023-07-09T08:45:26;9.20;;;6.72;;
72085;SDS011;64750;52.134;5.424;2023-07-09T08:48:19;8.43;;;6.28;;
72085;SDS011;64750;52.134;5.424;2023-07-09T08:51:10;7.35;;;6.43;;
72085;SDS011;64750;52.134;5.424;2023-07-09T08:53:46;7.88;;;6.72;;
72085;SDS011;64750;52.134;5.424;2023-07-09T08:56:17;10.17;;;6.97;;
72085;SDS011;64750;52.134;5.424;2023-07-09T08:58:44;9.15;;;6.95;;
72085;SDS011;64750;52.134;5.424;2023-07-09T09:03:50;8.30;;;6.78;;
72085;SDS011;64750;52.134;5.424;2023-07-09T09:06:21;10.63;;;7.43;;
72085;SDS011;64750;52.134;5.424;2023-07-09T09:08:59;10.30;;;6.57;;
72085;SDS011;64750;52.134;5.424;2023-07-09T09:14:18;12.60;;;6.85;;
72085;SDS011;64750;52.134;5.424;2023-07-09T09:16:45;11.50;;;6.38;;
72085;SDS011;64750;52.134;5.424;2023-07-09T09:19:22;7.95;;;6.40;;
72085;SDS011;64750;52.134;5.424;2023-07-09T09:22:06;6.20;;;5.37;;
72085;SDS011;64750;52.134;5.424;2023-07-09T09:24:49;6.95;;;5.90;;
72085;SDS011;64750;52.134;5.424;2023-07-09T09:27:37;6.68;;;5.82;;
72085;SDS011;64750;52.134;5.424;2023-07-09T09:30:04;12.18;;;5.93;;
72085;SDS011;64750;52.134;5.424;2023-07-09T09:32:43;11.55;;;5.55;;
72085;SDS011;64750;52.134;5.424;2023-07-09T09:35:16;6.70;;;6.00;;
72085;SDS011;64750;52.134;5.424;2023-07-09T09:37:46;7.88;;;5.78;;
72085;SDS011;64750;52.134;5.424;2023-07-09T09:40:18;6.65;;;5.45;;
72085;SDS011;64750;52.134;5.424;2023-07-09T09:42:48;6.97;;;6.38;;
72085;SDS011;64750;52.134;5.424;2023-07-09T09:45:17;7.93;;;5.80;;
72085;SDS011;64750;52.134;5.424;2023-07-09T09:47:45;6.60;;;5.83;;
72085;SDS011;64750;52.134;5.424;2023-07-09T09:50:14;6.70;;;6.10;;
72085;SDS011;64750;52.134;5.424;2023-07-09T09:52:42;11.70;;;6.07;;
72085;SDS011;64750;52.134;5.424;2023-07-09T09:55:10;6.28;;;5.78;;
72085;SDS011;64750;52.134;5.424;2023-07-09T09:57:47;8.70;;;6.03;;
72085;SDS011;64750;52.134;5.424;2023-07-09T10:00:18;7.43;;;5.50;;
72085;SDS011;64750;52.134;5.424;2023-07-09T10:02:47;10.10;;;6.07;;
72085;SDS011;64750;52.134;5.424;2023-07-09T10:05:15;7.15;;;5.30;;
72085;SDS011;64750;52.134;5.424;2023-07-09T10:07:52;6.13;;;5.53;;
72085;SDS011;64750;52.134;5.424;2023-07-09T10:10:35;6.70;;;5.93;;
72085;SDS011;64750;52.134;5.424;2023-07-09T10:13:10;5.73;;;5.17;;
72085;SDS011;64750;52.134;5.424;2023-07-09T10:23:44;11.02;;;8.13;;
72085;SDS011;64750;52.134;5.424;2023-07-09T10:26:36;10.10;;;8.60;;
72085;SDS011;64750;52.134;5.424;2023-07-09T10:34:45;10.15;;;9.32;;
72085;SDS011;64750;52.134;5.424;2023-07-09T10:40:03;13.47;;;11.03;;
72085;SDS011;64750;52.134;5.424;2023-07-09T10:42:38;11.55;;;9.55;;
72085;SDS011;64750;52.134;5.424;2023-07-09T10:45:10;12.35;;;10.05;;
72085;SDS011;64750;52.134;5.424;2023-07-09T10:47:49;14.02;;;8.50;;
72085;SDS011;64750;52.134;5.424;2023-07-09T10:50:30;10.50;;;9.13;;
72085;SDS011;64750;52.134;5.424;2023-07-09T10:53:02;13.80;;;9.13;;
72085;SDS011;64750;52.134;5.424;2023-07-09T10:55:39;16.65;;;9.98;;
72085;SDS011;64750;52.134;5.424;2023-07-09T10:58:35;12.90;;;9.50;;
72085;SDS011;64750;52.134;5.424;2023-07-09T11:01:08;10.93;;;8.65;;
72085;SDS011;64750;52.134;5.424;2023-07-09T11:03:52;8.85;;;7.82;;
72085;SDS011;64750;52.134;5.424;2023-07-09T11:09:00;12.15;;;9.13;;
72085;SDS011;64750;52.134;5.424;2023-07-09T11:11:30;16.10;;;11.60;;
72085;SDS011;64750;52.134;5.424;2023-07-09T11:14:03;11.75;;;9.80;;
72085;SDS011;64750;52.134;5.424;2023-07-09T11:16:39;11.63;;;10.15;;
72085;SDS011;64750;52.134;5.424;2023-07-09T11:19:13;11.37;;;10.23;;
72085;SDS011;64750;52.134;5.424;2023-07-09T11:21:45;12.30;;;10.85;;
72085;SDS011;64750;52.134;5.424;2023-07-09T11:25:27;12.95;;;9.88;;
72085;SDS011;64750;52.134;5.424;2023-07-09T11:27:44;10.85;;;9.75;;
72085;SDS011;64750;52.134;5.424;2023-07-09T11:30:27;11.07;;;9.95;;
72085;SDS011;64750;52.134;5.424;2023-07-09T11:32:59;12.47;;;9.67;;
72085;SDS011;64750;52.134;5.424;2023-07-09T11:35:49;14.10;;;11.23;;
72085;SDS011;64750;52.134;5.424;2023-07-09T11:38:18;14.57;;;10.88;;
72085;SDS011;64750;52.134;5.424;2023-07-09T11:40:50;14.93;;;10.57;;
72085;SDS011;64750;52.134;5.424;2023-07-09T11:43:32;10.60;;;9.63;;
72085;SDS011;64750;52.134;5.424;2023-07-09T11:46:17;12.60;;;10.97;;
72085;SDS011;64750;52.134;5.424;2023-07-09T11:48:47;13.48;;;10.73;;
72085;SDS011;64750;52.134;5.424;2023-07-09T11:51:16;14.13;;;10.27;;
72085;SDS011;64750;52.134;5.424;2023-07-09T11:53:47;12.73;;;10.30;;
72085;SDS011;64750;52.134;5.424;2023-07-09T11:56:18;11.63;;;9.55;;
72085;SDS011;64750;52.134;5.424;2023-07-09T11:58:50;10.60;;;9.50;;
72085;SDS011;64750;52.134;5.424;2023-07-09T12:01:18;12.35;;;8.48;;
72085;SDS011;64750;52.134;5.424;2023-07-09T12:03:52;10.30;;;8.75;;
72085;SDS011;64750;52.134;5.424;2023-07-09T12:06:28;13.02;;;8.63;;
72085;SDS011;64750;52.134;5.424;2023-07-09T12:08:58;7.07;;;6.53;;
72085;SDS011;64750;52.134;5.424;2023-07-09T12:13:54;8.77;;;6.30;;
72085;SDS011;64750;52.134;5.424;2023-07-09T12:16:31;6.50;;;5.90;;
72085;SDS011;64750;52.134;5.424;2023-07-09T12:19:01;6.82;;;5.70;;
72085;SDS011;64750;52.134;5.424;2023-07-09T12:21:27;6.15;;;5.70;;
72085;SDS011;64750;52.134;5.424;2023-07-09T12:23:54;8.10;;;5.50;;
72085;SDS011;64750;52.134;5.424;2023-07-09T12:26:24;9.05;;;5.55;;
72085;SDS011;64750;52.134;5.424;2023-07-09T12:28:54;7.03;;;4.93;;
72085;SDS011;64750;52.134;5.424;2023-07-09T12:31:28;7.90;;;5.60;;
72085;SDS011;64750;52.134;5.424;2023-07-09T12:33:59;10.00;;;5.80;;
72085;SDS011;64750;52.134;5.424;2023-07-09T12:36:26;8.27;;;5.50;;
72085;SDS011;64750;52.134;5.424;2023-07-09T12:39:00;6.03;;;5.28;;
72085;SDS011;64750;52.134;5.424;2023-07-09T12:41:34;6.47;;;5.53;;
72085;SDS011;64750;52.134;5.424;2023-07-09T12:44:04;9.18;;;6.18;;
72085;SDS011;64750;52.134;5.424;2023-07-09T12:46:31;5.50;;;5.10;;
72085;SDS011;64750;52.134;5.424;2023-07-09T12:48:58;9.93;;;5.47;;
72085;SDS011;64750;52.134;5.424;2023-07-09T12:51:25;6.03;;;5.30;;
72085;SDS011;64750;52.134;5.424;2023-07-09T12:54:16;7.20;;;6.07;;
72085;SDS011;64750;52.134;5.424;2023-07-09T12:56:45;6.90;;;5.82;;
72085;SDS011;64750;52.134;5.424;2023-07-09T12:59:22;7.10;;;5.65;;
72085;SDS011;64750;52.134;5.424;2023-07-09T13:02:00;6.27;;;5.77;;
72085;SDS011;64750;52.134;5.424;2023-07-09T13:04:30;7.22;;;6.00;;
72085;SDS011;64750;52.134;5.424;2023-07-09T13:06:58;10.57;;;5.82;;
72085;SDS011;64750;52.134;5.424;2023-07-09T13:09:26;7.82;;;6.93;;
72085;SDS011;64750;52.134;5.424;2023-07-09T13:11:54;6.22;;;5.63;;
72085;SDS011;64750;52.134;5.424;2023-07-09T13:14:24;6.17;;;5.67;;
72085;SDS011;64750;52.134;5.424;2023-07-09T13:16:53;6.65;;;5.18;;
72085;SDS011;64750;52.134;5.424;2023-07-09T13:19:28;6.65;;;5.18;;
72085;SDS011;64750;52.134;5.424;2023-07-09T13:21:55;4.88;;;4.50;;
72085;SDS011;64750;52.134;5.424;2023-07-09T13:24:25;5.25;;;4.75;;
72085;SDS011;64750;52.134;5.424;2023-07-09T13:26:55;6.13;;;4.97;;
72085;SDS011;64750;52.134;5.424;2023-07-09T13:29:26;4.35;;;3.95;;
72085;SDS011;64750;52.134;5.424;2023-07-09T13:31:53;5.95;;;5.18;;
72085;SDS011;64750;52.134;5.424;2023-07-09T13:34:21;5.45;;;4.93;;
72085;SDS011;64750;52.134;5.424;2023-07-09T13:36:49;7.72;;;4.72;;
72085;SDS011;64750;52.134;5.424;2023-07-09T13:39:17;6.90;;;4.67;;
72085;SDS011;64750;52.134;5.424;2023-07-09T13:41:47;5.28;;;4.85;;
72085;SDS011;64750;52.134;5.424;2023-07-09T13:44:22;5.50;;;5.00;;
72085;SDS011;64750;52.134;5.424;2023-07-09T13:46:55;4.88;;;4.40;;
72085;SDS011;64750;52.134;5.424;2023-07-09T13:49:23;5.20;;;4.70;;
72085;SDS011;64750;52.134;5.424;2023-07-09T13:51:52;5.17;;;4.70;;
72085;SDS011;64750;52.134;5.424;2023-07-09T13:54:26;6.32;;;4.88;;
72085;SDS011;64750;52.134;5.424;2023-07-09T13:56:58;7.65;;;5.25;;
72085;SDS011;64750;52.134;5.424;2023-07-09T13:59:24;5.30;;;4.65;;
72085;SDS011;64750;52.134;5.424;2023-07-09T14:01:54;7.35;;;4.47;;
72085;SDS011;64750;52.134;5.424;2023-07-09T14:04:23;6.67;;;4.37;;
72085;SDS011;64750;52.134;5.424;2023-07-09T14:06:50;5.55;;;4.25;;
72085;SDS011;64750;52.134;5.424;2023-07-09T14:09:17;6.65;;;3.97;;
72085;SDS011;64750;52.134;5.424;2023-07-09T14:11:44;3.42;;;2.90;;
72085;SDS011;64750;52.134;5.424;2023-07-09T14:14:22;4.60;;;2.67;;
72085;SDS011;64750;52.134;5.424;2023-07-09T14:16:58;4.63;;;2.90;;
72085;SDS011;64750;52.134;5.424;2023-07-09T14:19:26;3.33;;;2.45;;
72085;SDS011;64750;52.134;5.424;2023-07-09T14:21:53;6.15;;;3.15;;
72085;SDS011;64750;52.134;5.424;2023-07-09T14:24:21;4.22;;;2.80;;
72085;SDS011;64750;52.134;5.424;2023-07-09T14:26:50;4.47;;;2.72;;
72085;SDS011;64750;52.134;5.424;2023-07-09T14:29:18;3.53;;;2.70;;
72085;SDS011;64750;52.134;5.424;2023-07-09T14:31:45;3.38;;;3.03;;
72085;SDS011;64750;52.134;5.424;2023-07-09T14:34:20;7.00;;;2.78;;
72085;SDS011;64750;52.134;5.424;2023-07-09T14:36:50;3.95;;;2.75;;
72085;SDS011;64750;52.134;5.424;2023-07-09T14:39:18;3.90;;;3.13;;
72085;SDS011;64750;52.134;5.424;2023-07-09T14:41:45;3.77;;;3.10;;
72085;SDS011;64750;52.134;5.424;2023-07-09T14:46:41;8.75;;;3.20;;
72085;SDS011;64750;52.134;5.424;2023-07-09T14:49:08;5.63;;;3.13;;
72085;SDS011;64750;52.134;5.424;2023-07-09T14:51:36;7.40;;;3.20;;
72085;SDS011;64750;52.134;5.424;2023-07-09T14:54:07;5.00;;;3.30;;
72085;SDS011;64750;52.134;5.424;2023-07-09T14:56:45;5.65;;;3.58;;
72085;SDS011;64750;52.134;5.424;2023-07-09T14:59:12;8.55;;;3.10;;
72085;SDS011;64750;52.134;5.424;2023-07-09T15:01:38;9.65;;;2.47;;
72085;SDS011;64750;52.134;5.424;2023-07-09T15:04:49;8.50;;;2.97;;
72085;SDS011;64750;52.134;5.424;2023-07-09T15:07:00;13.43;;;4.80;;
72085;SDS011;64750;52.134;5.424;2023-07-09T15:09:27;9.90;;;3.75;;
72085;SDS011;64750;52.134;5.424;2023-07-09T15:11:55;5.20;;;2.70;;
72085;SDS011;64750;52.134;5.424;2023-07-09T15:14:23;8.45;;;3.10;;
72085;SDS011;64750;52.134;5.424;2023-07-09T15:16:51;5.90;;;3.20;;
72085;SDS011;64750;52.134;5.424;2023-07-09T15:19:22;5.73;;;2.50;;
72085;SDS011;64750;52.134;5.424;2023-07-09T15:21:49;8.52;;;3.10;;
72085;SDS011;64750;52.134;5.424;2023-07-09T15:24:25;4.30;;;2.50;;
72085;SDS011;64750;52.134;5.424;2023-07-09T15:27:00;2.75;;;2.40;;